createdAt,value
2023-02-21T00:02:21.464Z,7.60
2023-02-21T00:05:31.680Z,7.50
2023-02-21T00:08:43.551Z,7.60
2023-02-21T00:11:50.109Z,7.70
2023-02-21T00:14:54.293Z,7.70
2023-02-21T00:17:57.567Z,7.80
2023-02-21T00:20:57.171Z,7.80
2023-02-21T00:23:47.751Z,7.60
2023-02-21T00:30:45.599Z,7.20
2023-02-21T00:33:33.499Z,7.00
2023-02-21T00:36:29.617Z,6.90
2023-02-21T00:42:53.329Z,6.60
2023-02-21T00:45:48.353Z,6.70
2023-02-21T00:49:09.550Z,6.60
2023-02-21T00:55:13.127Z,6.40
2023-02-21T00:58:26.876Z,6.30
2023-02-21T01:01:35.438Z,6.30
2023-02-21T01:04:38.302Z,6.40
2023-02-21T01:07:29.990Z,6.30
2023-02-21T01:10:25.453Z,6.30
2023-02-21T01:13:28.373Z,6.30
2023-02-21T01:16:38.327Z,6.20
2023-02-21T01:19:24.274Z,6.20
2023-02-21T01:22:33.915Z,6.20
2023-02-21T01:25:30.079Z,6.20
2023-02-21T01:28:28.111Z,6.10
2023-02-21T01:31:17.910Z,6.10
2023-02-21T01:34:27.291Z,6.10
2023-02-21T01:37:41.739Z,5.80
2023-02-21T01:40:32.671Z,5.80
2023-02-21T01:47:24.494Z,5.50
2023-02-21T01:50:11.836Z,5.20
2023-02-21T01:53:06.462Z,5.10
2023-02-21T01:56:08.155Z,4.90
2023-02-21T02:06:10.301Z,5.00
2023-02-21T02:09:32.501Z,5.10
2023-02-21T02:12:56.816Z,5.10
2023-02-21T02:16:10.892Z,5.10
2023-02-21T02:19:12.782Z,5.00
2023-02-21T02:22:15.239Z,5.00
2023-02-21T02:25:23.673Z,5.00
2023-02-21T02:28:32.713Z,5.10
2023-02-21T02:31:57.936Z,5.20
2023-02-21T02:34:46.197Z,5.40
2023-02-21T02:37:32.005Z,5.40
2023-02-21T02:40:38.378Z,5.50
2023-02-21T02:46:59.602Z,5.40
2023-02-21T02:49:51.138Z,5.30
2023-02-21T02:52:28.514Z,5.50
2023-02-21T02:55:41.210Z,5.60
2023-02-21T02:58:24.098Z,5.60
2023-02-21T03:01:40.715Z,5.40
2023-02-21T03:04:59.424Z,5.40
2023-02-21T03:08:39.986Z,5.30
2023-02-21T03:11:21.348Z,5.20
2023-02-21T03:14:45.053Z,5.10
2023-02-21T03:17:43.457Z,5.20
2023-02-21T03:20:34.728Z,5.20
2023-02-21T03:23:08.614Z,5.10
2023-02-21T03:25:51.772Z,5.10
2023-02-21T03:28:27.398Z,4.70
2023-02-21T03:31:29.902Z,3.10
2023-02-21T03:34:06.695Z,1.80
2023-02-21T03:37:33.235Z,0.90
2023-02-21T03:40:09.278Z,0.50
2023-02-21T03:42:36.588Z,0.20
2023-02-21T03:45:20.734Z,0.40
2023-02-21T03:48:17.701Z,0.50
2023-02-21T03:51:33.721Z,1.20
2023-02-21T03:54:11.093Z,2.10
2023-02-21T03:57:20.707Z,2.80
2023-02-21T04:00:13.576Z,3.30
2023-02-21T04:03:02.363Z,3.60
2023-02-21T04:05:45.296Z,3.90
2023-02-21T04:08:27.847Z,4.20
2023-02-21T04:11:20.319Z,4.30
2023-02-21T04:14:04.568Z,4.40
2023-02-21T04:16:34.628Z,4.50
2023-02-21T04:19:24.857Z,4.50
2023-02-21T04:22:02.836Z,4.60
2023-02-21T04:24:41.175Z,4.70
2023-02-21T04:27:09.435Z,4.70
2023-02-21T04:29:54.003Z,4.80
2023-02-21T04:32:25.915Z,4.80
2023-02-21T04:35:15.643Z,4.70
2023-02-21T04:37:56.204Z,4.70
2023-02-21T04:40:42.554Z,4.70
2023-02-21T04:43:30.334Z,4.60
2023-02-21T04:46:03.409Z,4.50
2023-02-21T04:48:59.924Z,4.50
2023-02-21T04:52:01.992Z,4.50
2023-02-21T04:54:34.296Z,4.50
2023-02-21T04:57:05.914Z,4.40
2023-02-21T04:59:43.540Z,4.30
2023-02-21T05:08:05.534Z,4.40
2023-02-21T05:10:45.207Z,4.30
2023-02-21T05:13:40.334Z,4.20
2023-02-21T05:16:19.729Z,4.20
2023-02-21T05:18:57.011Z,4.20
2023-02-21T05:21:36.879Z,4.20
2023-02-21T05:24:21.913Z,4.20
2023-02-21T05:26:59.092Z,4.30
2023-02-21T05:29:33.914Z,4.20
2023-02-21T05:35:45.436Z,4.20
2023-02-21T05:38:23.154Z,4.20
2023-02-21T05:41:02.137Z,4.10
2023-02-21T05:43:49.317Z,4.10
2023-02-21T05:46:30.584Z,4.10
2023-02-21T05:49:01.847Z,4.00
2023-02-21T05:52:19.108Z,4.10
2023-02-21T05:55:30.682Z,4.30
2023-02-21T05:57:59.233Z,4.30
2023-02-21T06:01:09.415Z,4.20
2023-02-21T06:03:45.075Z,4.20
2023-02-21T06:06:25.767Z,4.20
2023-02-21T06:09:19.528Z,4.30
2023-02-21T06:12:13.621Z,4.30
2023-02-21T06:15:12.977Z,4.50
2023-02-21T06:18:19.668Z,4.40
2023-02-21T06:21:01.816Z,4.50
2023-02-21T06:23:33.521Z,4.60
2023-02-21T06:26:07.577Z,4.50
2023-02-21T06:28:52.003Z,4.40
2023-02-21T06:31:20.879Z,3.80
2023-02-21T06:34:06.191Z,2.20
2023-02-21T06:36:37.253Z,0.70
2023-02-21T06:45:28.704Z,-1.90
2023-02-21T06:48:20.575Z,-2.10
2023-02-21T06:51:15.019Z,-2.10
2023-02-21T06:54:00.761Z,-2.00
2023-02-21T06:57:21.287Z,-1.80
2023-02-21T07:00:32.558Z,-1.40
2023-02-21T07:03:12.856Z,-1.50
2023-02-21T07:05:57.559Z,-1.50
2023-02-21T07:08:31.196Z,-1.40
2023-02-21T07:11:27.133Z,-1.20
2023-02-21T07:17:33.821Z,-0.80
2023-02-21T07:20:02.363Z,-0.20
2023-02-21T07:22:39.847Z,-0.20
2023-02-21T07:25:28.070Z,0.50
2023-02-21T07:28:32.635Z,1.90
2023-02-21T07:34:06.407Z,4.20
2023-02-21T07:36:44.678Z,5.20
2023-02-21T07:39:19.213Z,6.10
2023-02-21T07:42:06.791Z,7.00
2023-02-21T07:44:41.277Z,7.80
2023-02-21T07:47:16.813Z,8.50
2023-02-21T07:49:56.692Z,9.20
2023-02-21T07:52:26.068Z,9.70
2023-02-21T07:55:16.537Z,10.00
2023-02-21T07:57:43.932Z,10.40
2023-02-21T08:00:12.948Z,10.60
2023-02-21T08:03:01.709Z,10.90
2023-02-21T08:05:30.445Z,11.20
2023-02-21T08:08:15.014Z,11.80
2023-02-21T08:10:52.058Z,12.40
2023-02-21T08:13:21.681Z,13.10
2023-02-21T08:16:15.831Z,13.40
2023-02-21T08:19:06.676Z,13.70
2023-02-21T08:21:35.153Z,13.70
2023-02-21T08:24:06.330Z,13.80
2023-02-21T08:30:21.924Z,14.70
2023-02-21T08:32:59.732Z,15.60
2023-02-21T08:35:30.109Z,16.60
2023-02-21T08:46:21.192Z,19.50
2023-02-21T08:51:48.309Z,19.80
2023-02-21T08:54:17.723Z,19.40
2023-02-21T08:57:18.182Z,18.70
2023-02-21T09:00:13.773Z,17.80
2023-02-21T09:02:54.765Z,17.20
2023-02-21T09:06:01.529Z,16.70
2023-02-21T09:08:40.141Z,16.40
2023-02-21T09:11:34.175Z,16.30
2023-02-21T09:14:21.494Z,16.20
2023-02-21T09:16:49.868Z,16.20
2023-02-21T09:19:28.471Z,16.20
2023-02-21T09:22:01.691Z,16.10
2023-02-21T09:24:41.782Z,15.80
2023-02-21T09:27:26.077Z,15.80
2023-02-21T09:30:00.522Z,15.90
2023-02-21T09:32:29.005Z,15.70
2023-02-21T09:35:11.211Z,15.80
2023-02-21T09:41:05.009Z,15.90
2023-02-21T09:43:51.862Z,16.00
2023-02-21T09:46:35.910Z,16.10
2023-02-21T09:49:26.318Z,16.20
2023-02-21T09:52:10.966Z,16.20
2023-02-21T09:54:57.388Z,16.30
2023-02-21T09:57:37.299Z,16.20
2023-02-21T10:00:48.961Z,16.10
2023-02-21T10:07:19.534Z,16.20
2023-02-21T10:10:23.839Z,16.10
2023-02-21T10:13:19.281Z,16.20
2023-02-21T10:16:19.800Z,16.10
2023-02-21T10:19:27.057Z,16.20
2023-02-21T10:22:33.053Z,16.20
2023-02-21T10:25:21.113Z,16.30
2023-02-21T10:28:19.118Z,16.30
2023-02-21T10:31:08.098Z,16.30
2023-02-21T10:33:53.114Z,16.10
2023-02-21T10:36:36.622Z,13.40
2023-02-21T10:39:17.001Z,10.80
2023-02-21T10:41:51.628Z,9.10
2023-02-21T10:44:33.219Z,8.10
2023-02-21T10:47:33.276Z,8.10
2023-02-21T10:50:07.886Z,7.70
2023-02-21T10:52:48.977Z,7.40
2023-02-21T10:55:34.864Z,7.30
2023-02-21T10:58:24.137Z,7.30
2023-02-21T11:01:19.058Z,8.00
2023-02-21T11:03:53.428Z,9.40
2023-02-21T11:07:12.872Z,10.50
2023-02-21T11:10:12.128Z,11.70
2023-02-21T11:13:04.521Z,12.50
2023-02-21T11:15:50.108Z,13.00
2023-02-21T11:18:32.252Z,13.50
2023-02-21T11:21:32.969Z,13.90
2023-02-21T11:24:11.810Z,14.30
2023-02-21T11:26:54.558Z,14.50
2023-02-21T11:32:34.949Z,14.80
2023-02-21T11:35:20.723Z,15.00
2023-02-21T11:38:03.407Z,15.20
2023-02-21T11:40:52.251Z,15.40
2023-02-21T11:43:53.075Z,15.40
2023-02-21T11:46:41.876Z,15.60
2023-02-21T11:49:25.060Z,15.90
2023-02-21T11:52:20.384Z,15.90
2023-02-21T11:54:55.733Z,16.00
2023-02-21T11:57:48.749Z,16.10
2023-02-21T12:07:45.973Z,16.40
2023-02-21T12:11:12.270Z,16.50
2023-02-21T12:14:19.578Z,16.70
2023-02-21T12:17:15.153Z,16.70
2023-02-21T12:20:28.296Z,16.90
2023-02-21T12:23:37.340Z,17.10
2023-02-21T12:26:36.263Z,17.00
2023-02-21T12:33:15.609Z,17.20
2023-02-21T12:36:20.589Z,17.20
2023-02-21T12:39:12.271Z,17.20
2023-02-21T12:42:21.778Z,17.10
2023-02-21T12:45:35.531Z,17.20
2023-02-21T12:55:33.256Z,17.40
2023-02-21T12:58:26.806Z,17.50
2023-02-21T13:01:04.247Z,17.50
2023-02-21T13:04:10.529Z,17.70
2023-02-21T13:06:55.594Z,17.80
2023-02-21T13:09:44.371Z,17.80
2023-02-21T13:12:33.281Z,17.90
2023-02-21T13:15:28.193Z,17.90
2023-02-21T13:18:24.916Z,18.00
2023-02-21T13:25:22.522Z,17.90
2023-02-21T13:28:06.549Z,17.90
2023-02-21T13:30:48.420Z,17.90
2023-02-21T13:33:51.856Z,17.90
2023-02-21T13:36:48.304Z,17.90
2023-02-21T13:39:32.287Z,17.90
2023-02-21T13:42:17.170Z,18.00
2023-02-21T13:45:29.593Z,18.00
2023-02-21T13:48:41.858Z,18.00
2023-02-21T13:51:57.933Z,18.10
2023-02-21T13:54:26.601Z,18.00
2023-02-21T13:57:05.863Z,17.90
2023-02-21T13:59:37.490Z,17.90
2023-02-21T14:06:02.301Z,17.80
2023-02-21T14:09:05.156Z,17.80
2023-02-21T14:11:48.366Z,17.80
2023-02-21T14:14:47.976Z,17.90
2023-02-21T14:17:20.873Z,18.00
2023-02-21T14:20:11.307Z,18.00
2023-02-21T14:23:17.581Z,17.90
2023-02-21T14:26:27.051Z,17.90
2023-02-21T14:29:33.312Z,18.00
2023-02-21T14:32:28.734Z,18.00
2023-02-21T14:35:24.040Z,18.00
2023-02-21T14:38:09.292Z,17.90
2023-02-21T14:41:06.110Z,17.90
2023-02-21T14:44:24.176Z,17.80
2023-02-21T14:47:34.494Z,17.80
2023-02-21T14:50:51.666Z,17.80
2023-02-21T14:53:59.617Z,17.80
2023-02-21T14:57:19.328Z,17.80
2023-02-21T15:00:31.915Z,17.90
2023-02-21T15:03:36.864Z,17.90
2023-02-21T15:06:26.816Z,18.00
2023-02-21T15:08:55.240Z,17.90
2023-02-21T15:11:40.095Z,17.80
2023-02-21T15:14:25.144Z,17.70
2023-02-21T15:17:39.278Z,17.70
2023-02-21T15:20:24.912Z,17.60
2023-02-21T15:23:30.516Z,17.60
2023-02-21T15:29:28.589Z,17.60
2023-02-21T15:32:04.263Z,17.50
2023-02-21T15:35:11.254Z,17.40
2023-02-21T15:38:07.942Z,17.40
2023-02-21T15:40:38.541Z,17.30
2023-02-21T15:43:12.606Z,17.20
2023-02-21T15:46:11.239Z,17.10
2023-02-21T15:48:49.683Z,17.00
2023-02-21T15:51:31.565Z,17.00
2023-02-21T15:54:36.040Z,16.90
2023-02-21T15:57:25.331Z,16.70
2023-02-21T16:00:45.889Z,16.60
2023-02-21T16:04:09.455Z,16.50
2023-02-21T16:06:45.579Z,16.30
2023-02-21T16:09:36.043Z,16.20
2023-02-21T16:12:28.181Z,16.20
2023-02-21T16:15:22.554Z,16.10
2023-02-21T16:18:20.220Z,15.90
2023-02-21T16:21:19.938Z,15.80
2023-02-21T16:23:55.383Z,15.70
2023-02-21T16:26:40.472Z,15.60
2023-02-21T16:29:08.578Z,15.70
2023-02-21T16:32:01.232Z,15.60
2023-02-21T16:35:07.669Z,15.50
2023-02-21T16:37:44.377Z,15.40
2023-02-21T16:41:04.995Z,15.30
2023-02-21T16:43:41.753Z,15.20
2023-02-21T16:46:21.309Z,15.10
2023-02-21T16:49:05.399Z,15.00
2023-02-21T16:51:40.910Z,14.90
2023-02-21T16:54:25.944Z,14.80
2023-02-21T17:03:11.394Z,14.60
2023-02-21T17:06:03.040Z,14.50
2023-02-21T17:08:32.832Z,14.40
2023-02-21T17:11:27.635Z,14.40
2023-02-21T17:14:07.235Z,14.40
2023-02-21T17:16:54.646Z,14.30
2023-02-21T17:19:22.195Z,14.20
2023-02-21T17:22:00.885Z,14.20
2023-02-21T17:24:34.244Z,14.20
2023-02-21T17:27:14.822Z,14.20
2023-02-21T17:29:55.623Z,14.20
2023-02-21T17:32:24.113Z,14.30
2023-02-21T17:34:52.810Z,14.20
2023-02-21T17:37:38.454Z,14.20
2023-02-21T17:40:26.514Z,14.20
2023-02-21T17:42:57.409Z,14.20
2023-02-21T17:45:35.735Z,14.20
2023-02-21T17:48:14.878Z,14.30
2023-02-21T17:51:05.814Z,14.20
2023-02-21T17:54:04.292Z,14.20
2023-02-21T17:56:36.064Z,14.20
2023-02-21T17:59:13.023Z,14.10
2023-02-21T18:01:56.493Z,14.00
2023-02-21T18:04:27.716Z,14.00
2023-02-21T18:07:11.924Z,14.00
2023-02-21T18:09:51.237Z,13.90
2023-02-21T18:12:24.116Z,13.70
2023-02-21T18:14:58.088Z,13.60
2023-02-21T18:17:29.490Z,13.50
2023-02-21T18:20:09.972Z,13.50
2023-02-21T18:23:04.131Z,13.40
2023-02-21T18:28:49.944Z,13.20
2023-02-21T18:31:28.366Z,13.20
2023-02-21T18:34:14.906Z,13.30
2023-02-21T18:37:00.972Z,13.30
2023-02-21T18:39:28.426Z,13.20
2023-02-21T18:42:05.220Z,13.10
2023-02-21T18:44:36.782Z,13.10
2023-02-21T18:47:25.714Z,13.00
2023-02-21T18:50:02.060Z,12.90
2023-02-21T18:52:40.658Z,12.80
2023-02-21T18:55:09.556Z,12.80
2023-02-21T18:57:42.399Z,12.80
2023-02-21T19:00:23.709Z,12.80
2023-02-21T19:02:55.214Z,12.70
2023-02-21T19:05:33.421Z,12.60
2023-02-21T19:08:16.711Z,12.60
2023-02-21T19:10:46.044Z,12.50
2023-02-21T19:13:14.247Z,12.50
2023-02-21T19:15:48.570Z,12.30
2023-02-21T19:18:39.517Z,12.20
2023-02-21T19:21:09.062Z,12.00
2023-02-21T19:23:45.374Z,11.90
2023-02-21T19:26:30.504Z,11.90
2023-02-21T19:29:17.002Z,12.00
2023-02-21T19:31:47.942Z,12.00
2023-02-21T19:34:16.655Z,12.10
2023-02-21T19:36:58.466Z,12.10
2023-02-21T19:39:30.007Z,12.10
2023-02-21T19:44:49.020Z,12.10
2023-02-21T19:47:19.728Z,12.10
2023-02-21T19:49:51.256Z,12.00
2023-02-21T19:52:29.316Z,12.00
2023-02-21T19:55:03.861Z,11.90
2023-02-21T19:57:32.193Z,11.80
2023-02-21T20:00:11.262Z,11.70
2023-02-21T20:02:50.767Z,11.50
2023-02-21T20:05:20.988Z,11.50
2023-02-21T20:08:00.828Z,11.40
2023-02-21T20:10:31.247Z,11.30
2023-02-21T20:13:11.610Z,11.30
2023-02-21T20:15:50.674Z,11.20
2023-02-21T20:18:20.695Z,11.10
2023-02-21T20:21:05.193Z,11.00
2023-02-21T20:23:34.664Z,10.90
2023-02-21T20:26:11.832Z,10.80
2023-02-21T20:29:06.306Z,10.80
2023-02-21T20:31:41.011Z,9.20
2023-02-21T20:34:10.677Z,7.40
2023-02-21T20:36:41.220Z,6.10
2023-02-21T20:39:29.454Z,5.20
2023-02-21T20:42:02.978Z,4.60
2023-02-21T20:47:53.630Z,4.20
2023-02-21T20:50:27.133Z,4.70
2023-02-21T20:52:57.542Z,5.50
2023-02-21T20:55:38.418Z,6.20
2023-02-21T20:58:07.535Z,7.20
2023-02-21T21:00:46.866Z,7.90
2023-02-21T21:03:21.887Z,8.40
2023-02-21T21:05:51.437Z,8.80
2023-02-21T21:08:24.021Z,9.00
2023-02-21T21:11:04.395Z,9.10
2023-02-21T21:13:37.333Z,9.10
2023-02-21T21:16:06.303Z,9.20
2023-02-21T21:18:42.737Z,9.20
2023-02-21T21:21:10.906Z,9.30
2023-02-21T21:23:40.380Z,9.30
2023-02-21T21:26:10.110Z,9.30
2023-02-21T21:28:49.703Z,9.30
2023-02-21T21:31:22.453Z,9.30
2023-02-21T21:33:49.978Z,9.30
2023-02-21T21:36:17.291Z,9.30
2023-02-21T21:38:54.902Z,9.30
2023-02-21T21:41:24.181Z,9.20
2023-02-21T21:43:52.726Z,9.10
2023-02-21T21:46:23.426Z,9.00
2023-02-21T21:48:59.855Z,9.00
2023-02-21T21:51:34.309Z,9.00
2023-02-21T21:54:10.401Z,9.00
2023-02-21T21:56:48.130Z,9.00
2023-02-21T21:59:23.510Z,9.00
2023-02-21T22:01:52.292Z,8.90
2023-02-21T22:04:21.492Z,9.00
2023-02-21T22:06:49.026Z,9.10
2023-02-21T22:09:18.941Z,8.90
2023-02-21T22:11:50.780Z,7.40
2023-02-21T22:14:19.776Z,5.50
2023-02-21T22:16:51.055Z,4.30
2023-02-21T22:19:23.312Z,3.70
2023-02-21T22:24:25.501Z,2.90
2023-02-21T22:27:00.748Z,2.60
2023-02-21T22:29:36.807Z,2.60
2023-02-21T22:32:04.182Z,2.80
2023-02-21T22:34:40.384Z,2.80
2023-02-21T22:37:10.816Z,2.90
2023-02-21T22:39:39.670Z,3.00
2023-02-21T22:42:09.453Z,3.10
2023-02-21T22:44:41.791Z,3.70
2023-02-21T22:47:11.269Z,5.10
2023-02-21T22:49:40.124Z,5.90
2023-02-21T22:52:10.876Z,6.60
2023-02-21T22:54:39.118Z,7.00
2023-02-21T22:57:09.363Z,7.40
2023-02-21T22:59:40.262Z,7.60
2023-02-21T23:02:26.874Z,7.70
2023-02-21T23:04:58.275Z,7.90
2023-02-21T23:07:25.390Z,8.00
2023-02-21T23:09:54.862Z,8.10
2023-02-21T23:12:24.086Z,8.20
2023-02-21T23:14:52.757Z,8.30
2023-02-21T23:17:21.556Z,8.50
2023-02-21T23:19:52.180Z,8.60
2023-02-21T23:22:22.949Z,8.70
2023-02-21T23:24:57.861Z,8.70
2023-02-21T23:27:25.128Z,8.70
2023-02-21T23:30:00.688Z,8.70
2023-02-21T23:32:37.291Z,8.60
2023-02-21T23:35:09.564Z,8.70
2023-02-21T23:37:52.514Z,8.70
2023-02-21T23:40:25.703Z,8.80
2023-02-21T23:43:02.559Z,8.80
2023-02-21T23:45:49.486Z,8.80
2023-02-21T23:48:21.483Z,8.90
2023-02-21T23:50:49.677Z,8.90
2023-02-21T23:53:26.416Z,8.90
2023-02-21T23:55:58.014Z,8.90
2023-02-21T23:58:29.817Z,9.00
